createdAt,value
2018-03-15T00:01:17.966Z,11.50
2018-03-15T00:03:28.436Z,9.43
2018-03-15T00:05:34.311Z,8.70
2018-03-15T00:07:40.929Z,9.03
2018-03-15T00:09:47.051Z,8.80
2018-03-15T00:11:53.307Z,9.07
2018-03-15T00:13:59.821Z,9.13
2018-03-15T00:16:05.520Z,8.90
2018-03-15T00:18:10.891Z,9.00
2018-03-15T00:20:16.810Z,8.80
2018-03-15T00:22:23.258Z,8.87
2018-03-15T00:24:28.724Z,9.50
2018-03-15T00:26:35.033Z,9.23
2018-03-15T00:28:40.677Z,8.33
2018-03-15T00:30:46.670Z,9.37
2018-03-15T00:32:52.398Z,8.57
2018-03-15T00:34:58.854Z,8.00
2018-03-15T00:37:05.079Z,8.23
2018-03-15T00:39:10.998Z,7.93
2018-03-15T00:41:16.610Z,7.33
2018-03-15T00:43:21.915Z,8.10
2018-03-15T00:45:27.253Z,7.90
2018-03-15T00:47:33.562Z,10.10
2018-03-15T00:49:43.252Z,8.90
2018-03-15T00:51:49.160Z,9.50
2018-03-15T00:53:55.299Z,8.67
2018-03-15T00:56:00.744Z,8.50
2018-03-15T00:58:06.679Z,8.77
2018-03-15T01:00:13.022Z,8.10
2018-03-15T01:02:18.882Z,8.67
2018-03-15T01:04:24.233Z,8.30
2018-03-15T01:06:30.892Z,8.30
2018-03-15T01:08:36.578Z,8.77
2018-03-15T01:10:42.363Z,8.23
2018-03-15T01:12:48.578Z,8.97
2018-03-15T01:14:54.461Z,8.40
2018-03-15T01:17:06.122Z,8.80
2018-03-15T01:19:12.572Z,8.90
2018-03-15T01:21:19.374Z,10.90
2018-03-15T01:23:24.672Z,8.53
2018-03-15T01:25:30.856Z,8.40
2018-03-15T01:27:36.835Z,7.93
2018-03-15T01:29:43.007Z,9.10
2018-03-15T01:31:49.220Z,8.03
2018-03-15T01:33:55.113Z,8.67
2018-03-15T01:36:01.232Z,9.40
2018-03-15T01:38:07.245Z,9.63
2018-03-15T01:40:13.007Z,8.47
2018-03-15T01:42:18.944Z,9.60
2018-03-15T01:44:25.361Z,8.53
2018-03-15T01:46:31.374Z,9.13
2018-03-15T01:48:37.119Z,8.77
2018-03-15T01:50:43.151Z,8.80
2018-03-15T01:52:49.064Z,9.13
2018-03-15T01:54:55.248Z,8.40
2018-03-15T01:57:01.612Z,9.90
2018-03-15T01:59:07.720Z,8.53
2018-03-15T02:01:13.828Z,8.60
2018-03-15T02:03:20.283Z,9.53
2018-03-15T02:05:26.403Z,9.70
2018-03-15T02:07:32.384Z,9.37
2018-03-15T02:09:38.926Z,9.20
2018-03-15T02:11:44.727Z,9.03
2018-03-15T02:13:50.664Z,9.00
2018-03-15T02:15:56.668Z,9.63
2018-03-15T02:18:02.523Z,8.60
2018-03-15T02:20:08.419Z,9.33
2018-03-15T02:22:14.632Z,15.47
2018-03-15T02:24:20.394Z,10.33
2018-03-15T02:26:26.327Z,9.27
2018-03-15T02:28:32.749Z,9.80
2018-03-15T02:30:38.594Z,9.90
2018-03-15T02:32:44.612Z,10.00
2018-03-15T02:34:50.706Z,9.60
2018-03-15T02:36:56.600Z,11.10
2018-03-15T02:39:02.613Z,9.93
2018-03-15T02:41:08.899Z,9.70
2018-03-15T02:43:19.399Z,10.00
2018-03-15T02:45:25.221Z,9.73
2018-03-15T02:47:31.302Z,10.93
2018-03-15T02:49:37.067Z,11.50
2018-03-15T02:51:43.107Z,10.03
2018-03-15T02:53:49.469Z,9.40
2018-03-15T02:55:55.418Z,9.73
2018-03-15T02:58:01.307Z,9.67
2018-03-15T03:00:08.209Z,9.07
2018-03-15T03:02:13.890Z,9.93
2018-03-15T03:04:19.399Z,9.93
2018-03-15T03:06:25.594Z,9.80
2018-03-15T03:08:31.766Z,10.80
2018-03-15T03:10:37.642Z,10.10
2018-03-15T03:12:44.040Z,10.20
2018-03-15T03:14:50.163Z,10.40
2018-03-15T03:16:55.875Z,9.87
2018-03-15T03:19:02.317Z,9.70
2018-03-15T03:21:08.557Z,9.80
2018-03-15T03:23:14.510Z,11.07
2018-03-15T03:25:25.212Z,10.37
2018-03-15T03:27:30.975Z,12.10
2018-03-15T03:29:36.962Z,10.80
2018-03-15T03:31:43.049Z,10.83
2018-03-15T03:33:48.908Z,13.47
2018-03-15T03:35:54.708Z,10.23
2018-03-15T03:38:01.017Z,11.23
2018-03-15T03:40:07.459Z,11.93
2018-03-15T03:42:13.187Z,10.73
2018-03-15T03:44:19.290Z,10.47
2018-03-15T03:46:25.154Z,10.93
2018-03-15T03:48:31.157Z,9.93
2018-03-15T03:50:37.312Z,9.87
2018-03-15T03:52:43.156Z,10.87
2018-03-15T03:54:49.394Z,10.30
2018-03-15T03:56:55.558Z,9.20
2018-03-15T03:59:00.935Z,12.40
2018-03-15T04:01:07.292Z,8.70
2018-03-15T04:03:13.592Z,10.77
2018-03-15T04:05:19.325Z,11.13
2018-03-15T04:07:25.252Z,10.43
2018-03-15T04:09:32.225Z,10.33
2018-03-15T04:11:38.696Z,10.30
2018-03-15T04:13:44.849Z,10.93
2018-03-15T04:15:51.217Z,12.00
2018-03-15T04:17:57.067Z,10.80
2018-03-15T04:20:03.135Z,10.07
2018-03-15T04:22:09.903Z,10.70
2018-03-15T04:24:15.779Z,13.63
2018-03-15T04:26:21.805Z,9.43
2018-03-15T04:28:27.964Z,10.90
2018-03-15T04:30:33.820Z,11.00
2018-03-15T04:32:39.925Z,10.83
2018-03-15T04:34:45.887Z,9.97
2018-03-15T04:36:51.648Z,10.50
2018-03-15T04:38:57.494Z,11.40
2018-03-15T04:41:03.745Z,10.00
2018-03-15T04:43:09.547Z,9.63
2018-03-15T04:45:15.224Z,9.93
2018-03-15T04:47:21.348Z,10.30
2018-03-15T04:49:27.094Z,9.10
2018-03-15T04:51:33.760Z,11.07
2018-03-15T04:53:39.816Z,9.70
2018-03-15T04:55:46.527Z,12.30
2018-03-15T04:57:52.351Z,10.40
2018-03-15T04:59:58.506Z,10.67
2018-03-15T05:02:04.588Z,10.57
2018-03-15T05:04:10.542Z,10.50
2018-03-15T05:06:16.120Z,10.80
2018-03-15T05:08:22.380Z,11.27
2018-03-15T05:10:28.876Z,11.07
2018-03-15T05:12:34.628Z,10.57
2018-03-15T05:14:40.476Z,10.50
2018-03-15T05:16:46.094Z,10.40
2018-03-15T05:18:52.296Z,12.00
2018-03-15T05:20:58.113Z,12.57
2018-03-15T05:23:04.158Z,11.33
2018-03-15T05:25:10.684Z,11.43
2018-03-15T05:27:17.003Z,11.20
2018-03-15T05:29:22.761Z,11.27
2018-03-15T05:31:29.163Z,11.20
2018-03-15T05:33:35.196Z,11.70
2018-03-15T05:35:40.976Z,11.57
2018-03-15T05:37:47.283Z,14.27
2018-03-15T05:39:53.259Z,12.17
2018-03-15T05:41:58.596Z,13.10
2018-03-15T05:44:06.038Z,12.00
2018-03-15T05:46:12.016Z,11.27
2018-03-15T05:50:28.898Z,13.20
2018-03-15T05:52:34.834Z,11.80
2018-03-15T05:54:40.798Z,11.33
2018-03-15T05:56:46.431Z,14.17
2018-03-15T05:58:52.654Z,12.00
2018-03-15T06:00:58.606Z,13.40
2018-03-15T06:03:04.430Z,15.07
2018-03-15T06:05:10.240Z,12.70
2018-03-15T06:07:15.610Z,270.97
2018-03-15T06:09:21.176Z,1300.43
2018-03-15T06:11:26.532Z,553.37
2018-03-15T06:13:32.196Z,1048.17
2018-03-15T06:15:38.363Z,242.83
2018-03-15T06:17:44.202Z,659.83
2018-03-15T06:19:50.156Z,279.93
2018-03-15T06:21:56.506Z,82.30
2018-03-15T06:24:01.805Z,36.30
2018-03-15T06:26:07.725Z,28.13
2018-03-15T06:28:13.872Z,904.03
2018-03-15T06:30:19.732Z,321.43
2018-03-15T06:32:25.231Z,823.77
2018-03-15T06:34:30.879Z,585.13
2018-03-15T06:36:36.332Z,813.60
2018-03-15T06:38:41.628Z,665.07
2018-03-15T06:40:48.346Z,573.73
2018-03-15T06:42:53.851Z,713.73
2018-03-15T06:45:00.170Z,1020.40
2018-03-15T06:47:05.820Z,1296.27
2018-03-15T06:49:11.108Z,690.17
2018-03-15T06:51:16.644Z,342.80
2018-03-15T06:53:23.404Z,195.77
2018-03-15T06:55:28.727Z,100.90
2018-03-15T06:57:34.631Z,58.87
2018-03-15T06:59:44.250Z,43.03
2018-03-15T07:01:51.473Z,36.40
2018-03-15T07:03:56.848Z,33.80
2018-03-15T07:06:02.549Z,26.20
2018-03-15T07:08:09.941Z,1999.90
2018-03-15T07:10:15.241Z,1633.67
2018-03-15T07:12:20.732Z,290.83
2018-03-15T07:14:26.185Z,1999.90
2018-03-15T07:16:31.488Z,1999.90
2018-03-15T07:18:38.092Z,548.63
2018-03-15T07:20:43.517Z,1094.70
2018-03-15T07:22:52.836Z,1154.73
2018-03-15T07:24:58.383Z,1057.30
2018-03-15T07:27:03.835Z,1529.47
2018-03-15T07:29:09.182Z,1911.93
2018-03-15T07:31:14.827Z,651.47
2018-03-15T07:33:20.140Z,1314.63
2018-03-15T07:35:25.424Z,768.50
2018-03-15T07:37:30.999Z,370.07
2018-03-15T07:39:36.705Z,1999.90
2018-03-15T07:41:42.001Z,1887.43
2018-03-15T07:43:48.069Z,1029.67
2018-03-15T07:45:53.484Z,546.33
2018-03-15T07:47:58.933Z,258.17
2018-03-15T07:50:04.621Z,130.17
2018-03-15T07:52:11.143Z,1528.20
2018-03-15T07:54:16.439Z,572.17
2018-03-15T07:56:21.992Z,1456.37
2018-03-15T07:58:27.312Z,801.60
2018-03-15T08:00:32.605Z,1395.87
2018-03-15T08:02:37.936Z,1662.70
2018-03-15T08:04:43.537Z,716.23
2018-03-15T08:06:48.884Z,822.47
2018-03-15T08:08:54.209Z,1098.83
2018-03-15T08:11:00.110Z,568.57
2018-03-15T08:13:05.400Z,1271.00
2018-03-15T08:15:11.579Z,726.93
2018-03-15T08:17:17.232Z,1277.77
2018-03-15T08:19:22.915Z,1258.50
2018-03-15T08:21:28.445Z,736.03
2018-03-15T08:23:34.182Z,966.73
2018-03-15T08:25:39.613Z,405.67
2018-03-15T08:27:45.089Z,262.23
2018-03-15T08:29:50.733Z,698.30
2018-03-15T08:31:56.972Z,908.33
2018-03-15T08:34:03.270Z,936.97
2018-03-15T08:36:09.456Z,254.57
2018-03-15T08:38:14.798Z,117.70
2018-03-15T08:40:20.256Z,52.93
2018-03-15T08:42:25.827Z,40.37
2018-03-15T08:44:31.868Z,29.70
2018-03-15T08:46:37.160Z,29.40
2018-03-15T08:48:42.719Z,22.90
2018-03-15T08:50:48.032Z,23.40
2018-03-15T08:52:53.393Z,23.27
2018-03-15T08:54:59.058Z,22.50
2018-03-15T08:57:04.448Z,20.80
2018-03-15T08:59:09.861Z,32.97
2018-03-15T09:01:16.063Z,1328.37
2018-03-15T09:03:22.012Z,511.23
2018-03-15T09:05:27.457Z,414.53
2018-03-15T09:07:33.009Z,598.17
2018-03-15T09:09:39.068Z,475.20
2018-03-15T09:11:44.801Z,500.57
2018-03-15T09:13:50.367Z,654.20
2018-03-15T09:15:55.638Z,926.77
2018-03-15T09:18:01.034Z,401.77
2018-03-15T09:20:06.915Z,141.27
2018-03-15T09:22:12.312Z,89.13
2018-03-15T09:24:17.554Z,44.47
2018-03-15T09:26:24.789Z,26.20
2018-03-15T09:28:30.055Z,25.20
2018-03-15T09:30:36.139Z,19.73
2018-03-15T09:32:42.936Z,269.73
2018-03-15T09:34:48.621Z,977.27
2018-03-15T09:36:54.610Z,300.50
2018-03-15T09:39:00.932Z,101.03
2018-03-15T09:41:07.026Z,593.03
2018-03-15T09:43:12.957Z,1293.90
2018-03-15T09:45:18.956Z,493.10
2018-03-15T09:47:24.327Z,553.23
2018-03-15T09:49:32.099Z,325.57
2018-03-15T09:51:37.931Z,73.63
2018-03-15T09:53:43.783Z,788.20
2018-03-15T09:55:49.621Z,133.47
2018-03-15T09:57:55.395Z,716.20
2018-03-15T10:00:00.815Z,199.10
2018-03-15T10:02:06.909Z,75.23
2018-03-15T10:04:12.584Z,911.10
2018-03-15T10:06:17.932Z,352.07
2018-03-15T10:08:23.237Z,283.33
2018-03-15T10:10:33.552Z,770.37
2018-03-15T10:12:38.954Z,483.83
2018-03-15T10:14:44.395Z,326.53
2018-03-15T10:16:50.186Z,92.57
2018-03-15T10:18:55.494Z,1158.20
2018-03-15T10:21:00.968Z,399.47
2018-03-15T10:23:07.193Z,1999.90
2018-03-15T10:25:13.883Z,335.27
2018-03-15T10:27:19.484Z,95.53
2018-03-15T10:29:25.967Z,57.83
2018-03-15T10:31:36.035Z,23.17
2018-03-15T10:33:41.363Z,22.77
2018-03-15T10:35:48.911Z,21.50
2018-03-15T10:37:55.200Z,17.60
2018-03-15T10:40:00.576Z,19.73
2018-03-15T10:42:09.112Z,16.37
2018-03-15T10:44:14.556Z,14.30
2018-03-15T10:46:20.409Z,13.60
2018-03-15T10:48:26.120Z,14.80
2018-03-15T10:50:31.481Z,15.13
2018-03-15T10:52:37.395Z,14.13
2018-03-15T10:54:42.984Z,13.67
2018-03-15T10:56:49.035Z,16.10
2018-03-15T10:58:55.004Z,13.00
2018-03-15T11:01:04.689Z,12.90
2018-03-15T11:03:14.441Z,11.47
2018-03-15T11:05:23.696Z,12.70
2018-03-15T11:07:31.061Z,11.40
2018-03-15T11:09:37.020Z,11.73
2018-03-15T11:11:42.430Z,13.03
2018-03-15T11:13:48.075Z,12.70
2018-03-15T11:15:53.520Z,11.40
2018-03-15T11:17:58.828Z,10.83
2018-03-15T11:20:04.486Z,12.30
2018-03-15T11:22:09.795Z,12.57
2018-03-15T11:24:15.780Z,11.50
2018-03-15T11:26:22.088Z,11.47
2018-03-15T11:28:27.722Z,11.37
2018-03-15T11:30:33.602Z,11.13
2018-03-15T11:32:39.177Z,10.20
2018-03-15T11:34:44.404Z,10.30
2018-03-15T11:36:49.687Z,9.97
2018-03-15T11:38:56.078Z,10.63
2018-03-15T11:41:01.376Z,10.40
2018-03-15T11:43:06.635Z,8.80
2018-03-15T11:45:12.252Z,9.60
2018-03-15T11:47:18.109Z,10.67
2018-03-15T11:49:23.526Z,9.90
2018-03-15T11:51:29.857Z,9.47
2018-03-15T11:53:35.847Z,10.07
2018-03-15T11:55:41.772Z,9.50
2018-03-15T11:57:47.503Z,8.70
2018-03-15T11:59:59.721Z,10.90
2018-03-15T12:02:05.108Z,10.87
2018-03-15T12:04:10.819Z,9.30
2018-03-15T12:06:16.126Z,9.90
2018-03-15T12:08:21.440Z,9.00
2018-03-15T12:10:27.098Z,9.50
2018-03-15T12:12:35.380Z,10.47
2018-03-15T12:14:40.841Z,9.33
2018-03-15T12:16:46.493Z,10.53
2018-03-15T12:18:51.735Z,10.10
2018-03-15T12:20:57.053Z,9.90
2018-03-15T12:23:05.690Z,9.93
2018-03-15T12:25:12.051Z,9.67
2018-03-15T12:27:24.895Z,10.00
2018-03-15T12:29:32.056Z,10.57
2018-03-15T12:31:37.524Z,10.47
2018-03-15T12:33:42.923Z,9.27
2018-03-15T12:35:48.744Z,10.47
2018-03-15T12:37:54.284Z,10.43
2018-03-15T12:39:59.568Z,9.63
2018-03-15T12:42:05.574Z,10.40
2018-03-15T12:44:12.156Z,9.73
2018-03-15T12:46:17.490Z,8.63
2018-03-15T12:48:23.070Z,10.07
2018-03-15T12:50:28.374Z,10.60
2018-03-15T12:52:36.339Z,9.50
2018-03-15T12:54:44.404Z,9.53
2018-03-15T12:56:49.725Z,9.07
2018-03-15T12:58:55.105Z,9.40
2018-03-15T13:01:00.646Z,8.93
2018-03-15T13:03:07.537Z,8.70
2018-03-15T13:05:12.816Z,8.50
2018-03-15T13:07:18.353Z,9.07
2018-03-15T13:09:23.628Z,9.07
2018-03-15T13:11:31.120Z,9.20
2018-03-15T13:13:37.528Z,15.40
2018-03-15T13:15:42.972Z,829.20
2018-03-15T13:17:48.961Z,963.97
2018-03-15T13:19:57.499Z,1474.77
2018-03-15T13:22:04.144Z,1258.03
2018-03-15T13:24:11.002Z,522.30
2018-03-15T13:26:17.349Z,574.60
2018-03-15T13:28:23.306Z,456.50
2018-03-15T13:30:28.997Z,222.97
2018-03-15T13:32:34.786Z,68.23
2018-03-15T13:34:40.340Z,21.93
2018-03-15T13:36:46.020Z,17.10
2018-03-15T13:38:52.031Z,15.40
2018-03-15T13:40:57.777Z,13.00
2018-03-15T13:43:03.148Z,12.07
2018-03-15T13:45:08.839Z,11.00
2018-03-15T13:47:14.867Z,15.00
2018-03-15T13:49:22.161Z,8.53
2018-03-15T13:51:27.846Z,10.10
2018-03-15T13:53:33.119Z,15.65
2018-03-15T13:55:39.207Z,8.90
2018-03-15T13:57:44.772Z,8.10
2018-03-15T13:59:50.257Z,7.80
2018-03-15T14:01:56.115Z,8.03
2018-03-15T14:04:01.753Z,9.70
2018-03-15T14:06:07.276Z,7.77
2018-03-15T14:08:13.558Z,9.37
2018-03-15T14:10:19.188Z,9.77
2018-03-15T14:12:24.596Z,9.40
2018-03-15T14:14:29.960Z,7.70
2018-03-15T14:16:35.608Z,8.50
2018-03-15T14:18:42.369Z,8.40
2018-03-15T14:20:47.816Z,7.93
2018-03-15T14:22:53.592Z,121.33
2018-03-15T14:24:59.049Z,102.57
2018-03-15T14:27:05.720Z,79.73
2018-03-15T14:29:12.229Z,23.20
2018-03-15T14:31:18.300Z,10.10
2018-03-15T14:33:24.788Z,10.07
2018-03-15T14:35:31.416Z,10.50
2018-03-15T14:37:37.583Z,21.40
2018-03-15T14:39:43.750Z,8.80
2018-03-15T14:41:50.288Z,7.97
2018-03-15T14:43:55.825Z,8.10
2018-03-15T14:46:01.210Z,1008.90
2018-03-15T14:48:06.832Z,1999.90
2018-03-15T14:50:12.231Z,1381.60
2018-03-15T14:52:17.595Z,1599.93
2018-03-15T14:54:23.850Z,674.37
2018-03-15T14:56:32.472Z,956.53
2018-03-15T14:58:42.979Z,102.47
2018-03-15T15:00:48.769Z,42.23
2018-03-15T15:02:54.158Z,1579.27
2018-03-15T15:05:00.496Z,376.20
2018-03-15T15:07:07.252Z,1999.90
2018-03-15T15:09:13.348Z,1771.47
2018-03-15T15:11:21.896Z,1668.37
2018-03-15T15:13:27.700Z,614.30
2018-03-15T15:15:33.384Z,1613.53
2018-03-15T15:17:39.554Z,1999.90
2018-03-15T15:19:46.986Z,1999.90
2018-03-15T15:21:53.003Z,1999.90
2018-03-15T15:24:00.595Z,1449.97
2018-03-15T15:26:14.668Z,711.87
2018-03-15T15:28:21.987Z,735.13
2018-03-15T15:30:28.161Z,336.60
2018-03-15T15:32:37.364Z,1133.23
2018-03-15T15:34:43.596Z,276.07
2018-03-15T15:36:50.934Z,569.20
2018-03-15T15:38:56.657Z,588.20
2018-03-15T15:41:01.883Z,1316.40
2018-03-15T15:43:08.566Z,503.80
2018-03-15T15:45:14.798Z,967.77
2018-03-15T15:47:20.271Z,124.17
2018-03-15T15:49:25.548Z,638.90
2018-03-15T15:51:31.731Z,118.33
2018-03-15T15:53:37.212Z,28.80
2018-03-15T15:55:42.552Z,19.27
2018-03-15T15:57:48.240Z,16.43
2018-03-15T15:59:53.709Z,15.53
2018-03-15T16:01:59.535Z,15.40
2018-03-15T16:04:06.811Z,14.47
2018-03-15T16:06:12.093Z,14.00
2018-03-15T16:08:17.563Z,13.87
2018-03-15T16:10:27.744Z,1777.80
2018-03-15T16:12:33.853Z,741.07
2018-03-15T16:14:39.814Z,1999.90
2018-03-15T16:16:46.084Z,1400.63
2018-03-15T16:18:52.201Z,686.60
2018-03-15T16:20:58.286Z,643.87
2018-03-15T16:23:04.145Z,420.37
2018-03-15T16:25:09.818Z,1181.97
2018-03-15T16:27:15.535Z,940.20
2018-03-15T16:29:21.663Z,580.83
2018-03-15T16:31:27.782Z,84.07
2018-03-15T16:33:34.672Z,125.83
2018-03-15T16:35:40.516Z,59.77
2018-03-15T16:37:46.349Z,632.60
2018-03-15T16:39:51.839Z,762.50
2018-03-15T16:41:57.835Z,372.93
2018-03-15T16:44:03.481Z,67.73
2018-03-15T16:46:09.865Z,28.90
2018-03-15T16:48:15.662Z,21.77
2018-03-15T16:50:21.136Z,476.23
2018-03-15T16:52:26.939Z,159.50
2018-03-15T16:54:32.609Z,100.80
2018-03-15T16:56:37.955Z,874.40
2018-03-15T16:58:45.698Z,152.50
2018-03-15T17:00:51.649Z,50.23
2018-03-15T17:02:57.154Z,30.63
2018-03-15T17:05:03.019Z,782.53
2018-03-15T17:07:08.819Z,88.60
2018-03-15T17:09:14.236Z,32.53
2018-03-15T17:11:19.876Z,26.17
2018-03-15T17:13:25.644Z,28.23
2018-03-15T17:15:30.999Z,19.97
2018-03-15T17:17:36.995Z,18.63
2018-03-15T17:19:42.751Z,18.47
2018-03-15T17:21:48.221Z,20.00
2018-03-15T17:23:53.849Z,17.97
2018-03-15T17:26:00.224Z,18.20
2018-03-15T17:28:05.640Z,17.17
2018-03-15T17:30:11.667Z,19.03
2018-03-15T17:32:17.321Z,18.23
2018-03-15T17:34:22.741Z,18.83
2018-03-15T17:36:28.352Z,17.50
2018-03-15T17:38:34.257Z,18.03
2018-03-15T17:40:39.741Z,17.43
2018-03-15T17:42:45.126Z,17.70
2018-03-15T17:44:51.128Z,18.50
2018-03-15T17:46:56.600Z,15.67
2018-03-15T17:49:02.234Z,15.73
2018-03-15T17:51:08.126Z,16.97
2018-03-15T17:53:14.001Z,16.73
2018-03-15T17:55:19.969Z,15.50
2018-03-15T17:57:25.860Z,16.17
2018-03-15T17:59:31.948Z,15.87
2018-03-15T18:01:37.320Z,15.70
2018-03-15T18:03:46.615Z,16.37
2018-03-15T18:05:51.959Z,15.17
2018-03-15T18:07:57.324Z,16.00
2018-03-15T18:10:03.368Z,14.57
2018-03-15T18:12:08.772Z,15.00
2018-03-15T18:14:14.248Z,15.87
2018-03-15T18:16:20.240Z,14.40
2018-03-15T18:18:25.560Z,14.80
2018-03-15T18:20:30.866Z,15.30
2018-03-15T18:22:36.734Z,15.03
2018-03-15T18:24:42.020Z,15.37
2018-03-15T18:26:47.660Z,14.97
2018-03-15T18:28:53.347Z,14.57
2018-03-15T18:30:58.736Z,14.77
2018-03-15T18:33:04.172Z,15.27
2018-03-15T18:35:11.548Z,15.27
2018-03-15T18:37:16.953Z,14.20
2018-03-15T18:39:22.434Z,16.33
2018-03-15T18:41:28.105Z,15.73
2018-03-15T18:43:33.519Z,15.37
2018-03-15T18:45:38.856Z,16.37
2018-03-15T18:47:44.464Z,16.47
2018-03-15T18:49:49.877Z,16.03
2018-03-15T18:51:55.768Z,16.43
2018-03-15T18:54:01.767Z,15.90
2018-03-15T18:56:07.157Z,14.53
2018-03-15T18:58:12.738Z,14.90
2018-03-15T19:00:18.408Z,15.97
2018-03-15T19:02:23.707Z,16.27
2018-03-15T19:04:29.319Z,15.37
2018-03-15T19:06:35.003Z,13.57
2018-03-15T19:08:40.316Z,15.70
2018-03-15T19:10:45.761Z,16.57
2018-03-15T19:12:54.448Z,15.70
2018-03-15T19:14:59.769Z,15.60
2018-03-15T19:17:05.197Z,14.77
2018-03-15T19:19:10.837Z,15.10
2018-03-15T19:21:16.230Z,15.23
2018-03-15T19:23:21.598Z,14.67
2018-03-15T19:25:27.429Z,14.50
2018-03-15T19:27:32.683Z,13.97
2018-03-15T19:29:38.225Z,14.43
2018-03-15T19:31:43.912Z,15.07
2018-03-15T19:33:49.333Z,14.50
2018-03-15T19:35:54.850Z,13.10
2018-03-15T19:38:01.960Z,13.43
2018-03-15T19:40:07.449Z,14.60
2018-03-15T19:42:12.784Z,13.93
2018-03-15T19:44:18.372Z,13.40
2018-03-15T19:46:23.708Z,13.47
2018-03-15T19:48:30.305Z,13.70
2018-03-15T19:50:35.928Z,12.53
2018-03-15T19:52:41.460Z,13.60
2018-03-15T19:54:46.822Z,14.10
2018-03-15T19:56:52.523Z,13.93
2018-03-15T19:58:57.871Z,15.43
2018-03-15T20:01:03.873Z,14.17
2018-03-15T20:03:09.624Z,14.10
2018-03-15T20:05:14.904Z,13.47
2018-03-15T20:07:20.338Z,14.87
2018-03-15T20:09:26.048Z,15.97
2018-03-15T20:11:31.328Z,15.50
2018-03-15T20:13:36.728Z,15.33
2018-03-15T20:15:46.354Z,14.83
2018-03-15T20:17:52.104Z,16.10
2018-03-15T20:19:57.448Z,14.70
2018-03-15T20:22:03.102Z,15.57
2018-03-15T20:24:13.512Z,15.70
2018-03-15T20:26:18.868Z,16.43
2018-03-15T20:28:54.545Z,16.00
2018-03-15T20:30:59.988Z,16.93
2018-03-15T20:34:10.552Z,18.83
2018-03-15T20:36:16.240Z,19.83
2018-03-15T20:38:21.620Z,17.60
2018-03-15T20:40:31.664Z,18.90
2018-03-15T20:42:37.333Z,19.00
2018-03-15T20:44:43.472Z,18.97
2018-03-15T20:48:54.980Z,17.73
2018-03-15T20:51:00.538Z,18.23
2018-03-15T20:53:10.495Z,21.73
2018-03-15T20:55:18.891Z,22.23
2018-03-15T20:57:27.631Z,22.93
2018-03-15T20:59:32.912Z,21.60
2018-03-15T21:01:38.535Z,19.03
2018-03-15T21:03:43.914Z,21.03
2018-03-15T21:05:49.775Z,21.37
2018-03-15T21:07:55.387Z,19.00
2018-03-15T21:10:00.752Z,25.53
2018-03-15T21:12:06.126Z,24.77
2018-03-15T21:14:13.835Z,20.57
2018-03-15T21:16:19.781Z,24.90
2018-03-15T21:18:26.140Z,22.47
2018-03-15T21:20:31.831Z,22.37
2018-03-15T21:22:37.701Z,23.10
2018-03-15T21:24:43.053Z,26.53
2018-03-15T21:26:48.627Z,21.97
2018-03-15T21:28:54.436Z,22.57
2018-03-15T21:30:59.858Z,25.33
2018-03-15T21:33:05.952Z,21.60
2018-03-15T21:35:11.634Z,25.13
2018-03-15T21:37:17.769Z,23.03
2018-03-15T21:39:23.609Z,26.03
2018-03-15T21:41:29.165Z,24.23
2018-03-15T21:43:34.504Z,25.80
2018-03-15T21:45:40.184Z,24.60
2018-03-15T21:47:45.531Z,26.47
2018-03-15T21:49:50.860Z,27.70
2018-03-15T21:51:56.920Z,26.70
2018-03-15T21:54:02.294Z,28.00
2018-03-15T21:56:08.006Z,26.73
2018-03-15T21:58:13.822Z,31.00
2018-03-15T22:00:19.453Z,26.10
2018-03-15T22:02:25.048Z,30.70
2018-03-15T22:04:30.827Z,27.10
2018-03-15T22:06:38.328Z,26.73
2018-03-15T22:08:43.741Z,30.23
2018-03-15T22:10:49.508Z,27.63
2018-03-15T22:12:54.888Z,26.43
2018-03-15T22:15:00.593Z,28.03
2018-03-15T22:17:06.742Z,29.73
2018-03-15T22:19:12.162Z,28.10
2018-03-15T22:21:18.142Z,30.30
2018-03-15T22:23:24.107Z,30.30
2018-03-15T22:25:31.265Z,30.70
2018-03-15T22:27:36.507Z,27.03
2018-03-15T22:29:43.078Z,29.77
2018-03-15T22:31:48.570Z,29.43
2018-03-15T22:33:53.967Z,29.00
2018-03-15T22:36:00.446Z,31.77
2018-03-15T22:38:05.761Z,33.67
2018-03-15T22:40:12.727Z,930.30
2018-03-15T22:42:18.427Z,1786.47
2018-03-15T22:44:23.775Z,1242.90
2018-03-15T22:46:29.684Z,484.67
2018-03-15T22:48:35.277Z,352.20
2018-03-15T22:50:40.966Z,673.27
2018-03-15T22:52:46.436Z,138.30
2018-03-15T22:54:52.652Z,795.67
2018-03-15T22:56:58.481Z,791.73
2018-03-15T22:59:05.203Z,975.03
2018-03-15T23:01:10.825Z,494.53
2018-03-15T23:03:16.652Z,164.27
2018-03-15T23:05:21.947Z,266.90
2018-03-15T23:07:28.622Z,91.23
2018-03-15T23:09:34.090Z,1125.40
2018-03-15T23:11:39.380Z,1071.60
2018-03-15T23:13:45.834Z,189.70
2018-03-15T23:15:52.123Z,71.60
2018-03-15T23:17:57.449Z,63.40
2018-03-15T23:20:03.255Z,379.73
2018-03-15T23:22:09.456Z,1319.13
2018-03-15T23:24:14.899Z,802.50
2018-03-15T23:26:20.477Z,151.67
2018-03-15T23:28:25.792Z,78.70
2018-03-15T23:30:32.699Z,56.00
2018-03-15T23:32:43.309Z,973.07
2018-03-15T23:34:48.627Z,1351.67
2018-03-15T23:36:55.066Z,265.30
2018-03-15T23:39:01.376Z,201.37
2018-03-15T23:41:06.750Z,1936.73
2018-03-15T23:43:12.013Z,1873.70
2018-03-15T23:45:17.702Z,603.57
2018-03-15T23:47:23.179Z,1503.93
2018-03-15T23:49:28.831Z,1759.83
2018-03-15T23:51:35.051Z,600.77
2018-03-15T23:53:40.376Z,126.33
2018-03-15T23:55:45.689Z,587.53
2018-03-15T23:57:52.036Z,306.80
2018-03-15T23:59:58.077Z,544.53
